sensor_id;sensor_type;location;lat;lon;timestamp;P1;durP1;ratioP1;P2;durP2;ratioP2
20298;SDS011;10308;42.688;23.256;2022-12-18T00:02:04;4.68;;;4.38;;
20298;SDS011;10308;42.688;23.256;2022-12-18T00:04:31;4.70;;;4.30;;
20298;SDS011;10308;42.688;23.256;2022-12-18T00:06:57;4.90;;;4.50;;
20298;SDS011;10308;42.688;23.256;2022-12-18T00:09:24;4.65;;;4.35;;
20298;SDS011;10308;42.688;23.256;2022-12-18T00:11:51;4.38;;;4.07;;
20298;SDS011;10308;42.688;23.256;2022-12-18T00:14:18;4.40;;;4.00;;
20298;SDS011;10308;42.688;23.256;2022-12-18T00:16:46;4.53;;;4.22;;
20298;SDS011;10308;42.688;23.256;2022-12-18T00:19:13;4.68;;;4.28;;
20298;SDS011;10308;42.688;23.256;2022-12-18T00:21:41;4.93;;;4.53;;
20298;SDS011;10308;42.688;23.256;2022-12-18T00:24:08;5.05;;;4.65;;
20298;SDS011;10308;42.688;23.256;2022-12-18T00:26:36;4.93;;;4.57;;
20298;SDS011;10308;42.688;23.256;2022-12-18T00:29:04;5.30;;;4.90;;
20298;SDS011;10308;42.688;23.256;2022-12-18T00:31:32;4.90;;;4.50;;
20298;SDS011;10308;42.688;23.256;2022-12-18T00:34:00;5.00;;;4.60;;
20298;SDS011;10308;42.688;23.256;2022-12-18T00:36:29;5.45;;;5.05;;
20298;SDS011;10308;42.688;23.256;2022-12-18T00:38:58;5.28;;;4.88;;
20298;SDS011;10308;42.688;23.256;2022-12-18T00:41:28;5.55;;;5.15;;
20298;SDS011;10308;42.688;23.256;2022-12-18T00:44:13;5.25;;;4.85;;
20298;SDS011;10308;42.688;23.256;2022-12-18T00:46:41;5.55;;;5.15;;
20298;SDS011;10308;42.688;23.256;2022-12-18T00:49:10;5.43;;;5.03;;
20298;SDS011;10308;42.688;23.256;2022-12-18T00:51:40;6.00;;;5.50;;
20298;SDS011;10308;42.688;23.256;2022-12-18T00:54:06;6.05;;;5.55;;
20298;SDS011;10308;42.688;23.256;2022-12-18T00:56:34;5.60;;;5.20;;
20298;SDS011;10308;42.688;23.256;2022-12-18T00:59:01;5.95;;;5.45;;
20298;SDS011;10308;42.688;23.256;2022-12-18T01:01:28;5.88;;;5.45;;
20298;SDS011;10308;42.688;23.256;2022-12-18T01:03:55;5.85;;;5.35;;
20298;SDS011;10308;42.688;23.256;2022-12-18T01:06:26;5.45;;;5.05;;
20298;SDS011;10308;42.688;23.256;2022-12-18T01:08:52;5.32;;;4.93;;
20298;SDS011;10308;42.688;23.256;2022-12-18T01:11:19;6.00;;;5.53;;
20298;SDS011;10308;42.688;23.256;2022-12-18T01:13:47;5.55;;;5.10;;
20298;SDS011;10308;42.688;23.256;2022-12-18T01:16:14;5.78;;;5.38;;
20298;SDS011;10308;42.688;23.256;2022-12-18T01:18:42;6.15;;;5.65;;
20298;SDS011;10308;42.688;23.256;2022-12-18T01:21:09;6.25;;;5.75;;
20298;SDS011;10308;42.688;23.256;2022-12-18T01:23:38;6.45;;;5.90;;
20298;SDS011;10308;42.688;23.256;2022-12-18T01:26:05;6.32;;;5.82;;
20298;SDS011;10308;42.688;23.256;2022-12-18T01:28:33;6.30;;;5.80;;
20298;SDS011;10308;42.688;23.256;2022-12-18T01:31:09;6.35;;;5.88;;
20298;SDS011;10308;42.688;23.256;2022-12-18T01:33:36;6.63;;;6.13;;
20298;SDS011;10308;42.688;23.256;2022-12-18T01:36:03;5.65;;;5.25;;
20298;SDS011;10308;42.688;23.256;2022-12-18T01:38:30;6.32;;;5.82;;
20298;SDS011;10308;42.688;23.256;2022-12-18T01:40:59;6.45;;;5.95;;
20298;SDS011;10308;42.688;23.256;2022-12-18T01:43:40;5.97;;;5.57;;
20298;SDS011;10308;42.688;23.256;2022-12-18T01:46:10;6.18;;;5.68;;
20298;SDS011;10308;42.688;23.256;2022-12-18T01:48:37;6.03;;;5.57;;
20298;SDS011;10308;42.688;23.256;2022-12-18T01:51:06;6.00;;;5.60;;
20298;SDS011;10308;42.688;23.256;2022-12-18T01:53:34;5.82;;;5.28;;
20298;SDS011;10308;42.688;23.256;2022-12-18T01:56:04;6.00;;;5.50;;
20298;SDS011;10308;42.688;23.256;2022-12-18T01:58:32;5.53;;;5.13;;
20298;SDS011;10308;42.688;23.256;2022-12-18T02:01:02;5.88;;;5.45;;
20298;SDS011;10308;42.688;23.256;2022-12-18T02:03:29;5.85;;;5.35;;
20298;SDS011;10308;42.688;23.256;2022-12-18T02:05:57;6.07;;;5.57;;
20298;SDS011;10308;42.688;23.256;2022-12-18T02:08:30;5.65;;;5.25;;
20298;SDS011;10308;42.688;23.256;2022-12-18T02:11:02;5.68;;;5.28;;
20298;SDS011;10308;42.688;23.256;2022-12-18T02:13:36;5.55;;;5.15;;
20298;SDS011;10308;42.688;23.256;2022-12-18T02:16:08;5.05;;;4.65;;
20298;SDS011;10308;42.688;23.256;2022-12-18T02:18:43;5.50;;;5.10;;
20298;SDS011;10308;42.688;23.256;2022-12-18T02:21:12;5.50;;;5.10;;
20298;SDS011;10308;42.688;23.256;2022-12-18T02:23:48;5.80;;;5.30;;
20298;SDS011;10308;42.688;23.256;2022-12-18T02:26:20;5.05;;;4.72;;
20298;SDS011;10308;42.688;23.256;2022-12-18T02:28:51;5.50;;;5.10;;
20298;SDS011;10308;42.688;23.256;2022-12-18T02:31:23;5.35;;;4.95;;
20298;SDS011;10308;42.688;23.256;2022-12-18T02:33:53;5.80;;;5.40;;
20298;SDS011;10308;42.688;23.256;2022-12-18T02:36:24;5.88;;;5.35;;
20298;SDS011;10308;42.688;23.256;2022-12-18T02:38:52;5.57;;;5.18;;
20298;SDS011;10308;42.688;23.256;2022-12-18T02:41:20;5.50;;;5.00;;
20298;SDS011;10308;42.688;23.256;2022-12-18T02:43:53;5.50;;;5.10;;
20298;SDS011;10308;42.688;23.256;2022-12-18T02:46:31;6.15;;;5.65;;
20298;SDS011;10308;42.688;23.256;2022-12-18T02:49:01;7.10;;;6.50;;
20298;SDS011;10308;42.688;23.256;2022-12-18T02:51:35;5.53;;;5.05;;
20298;SDS011;10308;42.688;23.256;2022-12-18T02:54:06;5.43;;;5.03;;
20298;SDS011;10308;42.688;23.256;2022-12-18T02:56:38;5.97;;;5.50;;
20298;SDS011;10308;42.688;23.256;2022-12-18T02:59:09;4.82;;;4.43;;
20298;SDS011;10308;42.688;23.256;2022-12-18T03:01:43;5.22;;;4.85;;
20298;SDS011;10308;42.688;23.256;2022-12-18T03:04:14;5.70;;;5.22;;
20298;SDS011;10308;42.688;23.256;2022-12-18T03:06:43;4.70;;;4.30;;
20298;SDS011;10308;42.688;23.256;2022-12-18T03:09:14;5.15;;;4.75;;
20298;SDS011;10308;42.688;23.256;2022-12-18T03:11:46;6.00;;;5.50;;
20298;SDS011;10308;42.688;23.256;2022-12-18T03:14:33;5.70;;;5.30;;
20298;SDS011;10308;42.688;23.256;2022-12-18T03:17:02;5.35;;;4.95;;
20298;SDS011;10308;42.688;23.256;2022-12-18T03:19:31;5.85;;;5.38;;
20298;SDS011;10308;42.688;23.256;2022-12-18T03:22:00;6.32;;;5.82;;
20298;SDS011;10308;42.688;23.256;2022-12-18T03:24:28;6.53;;;5.93;;
20298;SDS011;10308;42.688;23.256;2022-12-18T03:26:58;6.47;;;5.97;;
20298;SDS011;10308;42.688;23.256;2022-12-18T03:29:28;6.15;;;5.65;;
20298;SDS011;10308;42.688;23.256;2022-12-18T03:32:04;5.60;;;5.20;;
20298;SDS011;10308;42.688;23.256;2022-12-18T03:34:34;5.32;;;4.93;;
20298;SDS011;10308;42.688;23.256;2022-12-18T03:37:03;6.32;;;5.82;;
20298;SDS011;10308;42.688;23.256;2022-12-18T03:39:30;6.20;;;5.60;;
20298;SDS011;10308;42.688;23.256;2022-12-18T03:41:59;6.40;;;5.90;;
20298;SDS011;10308;42.688;23.256;2022-12-18T03:44:31;6.13;;;5.68;;
20298;SDS011;10308;42.688;23.256;2022-12-18T03:47:05;5.18;;;4.78;;
20298;SDS011;10308;42.688;23.256;2022-12-18T03:49:35;6.47;;;5.88;;
20298;SDS011;10308;42.688;23.256;2022-12-18T03:52:05;5.82;;;5.32;;
20298;SDS011;10308;42.688;23.256;2022-12-18T03:54:34;5.88;;;5.47;;
20298;SDS011;10308;42.688;23.256;2022-12-18T03:57:05;5.38;;;4.97;;
20298;SDS011;10308;42.688;23.256;2022-12-18T03:59:35;5.90;;;5.50;;
20298;SDS011;10308;42.688;23.256;2022-12-18T04:02:02;5.20;;;4.80;;
20298;SDS011;10308;42.688;23.256;2022-12-18T04:04:31;5.68;;;5.18;;
20298;SDS011;10308;42.688;23.256;2022-12-18T04:06:58;6.07;;;5.57;;
20298;SDS011;10308;42.688;23.256;2022-12-18T04:09:25;6.10;;;5.60;;
20298;SDS011;10308;42.688;23.256;2022-12-18T04:11:52;6.20;;;5.60;;
20298;SDS011;10308;42.688;23.256;2022-12-18T04:14:20;6.45;;;5.95;;
20298;SDS011;10308;42.688;23.256;2022-12-18T04:16:47;6.45;;;5.95;;
20298;SDS011;10308;42.688;23.256;2022-12-18T04:19:13;6.90;;;6.38;;
20298;SDS011;10308;42.688;23.256;2022-12-18T04:21:40;6.30;;;5.80;;
20298;SDS011;10308;42.688;23.256;2022-12-18T04:24:07;6.72;;;6.13;;
20298;SDS011;10308;42.688;23.256;2022-12-18T04:26:34;7.18;;;6.57;;
20298;SDS011;10308;42.688;23.256;2022-12-18T04:29:01;7.53;;;6.88;;
20298;SDS011;10308;42.688;23.256;2022-12-18T04:31:29;7.68;;;7.07;;
20298;SDS011;10308;42.688;23.256;2022-12-18T04:33:56;7.55;;;6.95;;
20298;SDS011;10308;42.688;23.256;2022-12-18T04:36:23;7.63;;;7.03;;
20298;SDS011;10308;42.688;23.256;2022-12-18T04:38:53;7.90;;;7.20;;
20298;SDS011;10308;42.688;23.256;2022-12-18T04:41:20;7.82;;;7.20;;
20298;SDS011;10308;42.688;23.256;2022-12-18T04:43:46;8.18;;;7.47;;
20298;SDS011;10308;42.688;23.256;2022-12-18T04:46:13;8.30;;;7.60;;
20298;SDS011;10308;42.688;23.256;2022-12-18T04:48:41;8.52;;;7.78;;
20298;SDS011;10308;42.688;23.256;2022-12-18T04:51:11;8.55;;;7.85;;
20298;SDS011;10308;42.688;23.256;2022-12-18T04:53:38;8.15;;;7.35;;
20298;SDS011;10308;42.688;23.256;2022-12-18T04:56:05;8.30;;;7.60;;
20298;SDS011;10308;42.688;23.256;2022-12-18T04:58:32;8.25;;;7.55;;
20298;SDS011;10308;42.688;23.256;2022-12-18T05:00:59;8.02;;;7.32;;
20298;SDS011;10308;42.688;23.256;2022-12-18T05:03:26;9.00;;;8.20;;
20298;SDS011;10308;42.688;23.256;2022-12-18T05:05:55;9.50;;;8.70;;
20298;SDS011;10308;42.688;23.256;2022-12-18T05:08:21;9.45;;;8.65;;
20298;SDS011;10308;42.688;23.256;2022-12-18T05:10:48;9.55;;;8.75;;
20298;SDS011;10308;42.688;23.256;2022-12-18T05:13:15;9.40;;;8.60;;
20298;SDS011;10308;42.688;23.256;2022-12-18T05:15:42;9.80;;;8.98;;
20298;SDS011;10308;42.688;23.256;2022-12-18T05:18:08;10.40;;;9.50;;
20298;SDS011;10308;42.688;23.256;2022-12-18T05:20:35;10.20;;;9.30;;
20298;SDS011;10308;42.688;23.256;2022-12-18T05:23:03;10.10;;;9.20;;
20298;SDS011;10308;42.688;23.256;2022-12-18T05:25:30;10.20;;;9.30;;
20298;SDS011;10308;42.688;23.256;2022-12-18T05:27:57;9.82;;;9.00;;
20298;SDS011;10308;42.688;23.256;2022-12-18T05:30:24;9.65;;;8.85;;
20298;SDS011;10308;42.688;23.256;2022-12-18T05:32:51;9.02;;;8.30;;
20298;SDS011;10308;42.688;23.256;2022-12-18T05:35:17;8.73;;;7.95;;
20298;SDS011;10308;42.688;23.256;2022-12-18T05:37:44;9.15;;;8.40;;
20298;SDS011;10308;42.688;23.256;2022-12-18T05:40:13;9.02;;;8.32;;
20298;SDS011;10308;42.688;23.256;2022-12-18T05:42:39;9.98;;;9.07;;
20298;SDS011;10308;42.688;23.256;2022-12-18T05:45:06;9.45;;;8.65;;
20298;SDS011;10308;42.688;23.256;2022-12-18T05:47:34;10.30;;;9.40;;
20298;SDS011;10308;42.688;23.256;2022-12-18T05:50:01;10.63;;;9.73;;
20298;SDS011;10308;42.688;23.256;2022-12-18T05:52:28;11.60;;;10.60;;
20298;SDS011;10308;42.688;23.256;2022-12-18T05:54:54;10.95;;;9.95;;
20298;SDS011;10308;42.688;23.256;2022-12-18T05:57:23;12.10;;;11.00;;
20298;SDS011;10308;42.688;23.256;2022-12-18T05:59:49;12.52;;;11.45;;
20298;SDS011;10308;42.688;23.256;2022-12-18T06:02:16;12.55;;;11.45;;
20298;SDS011;10308;42.688;23.256;2022-12-18T06:04:43;12.27;;;11.18;;
20298;SDS011;10308;42.688;23.256;2022-12-18T06:07:10;11.50;;;10.50;;
20298;SDS011;10308;42.688;23.256;2022-12-18T06:09:36;10.68;;;9.68;;
20298;SDS011;10308;42.688;23.256;2022-12-18T06:12:03;10.90;;;10.00;;
20298;SDS011;10308;42.688;23.256;2022-12-18T06:14:33;10.52;;;9.63;;
20298;SDS011;10308;42.688;23.256;2022-12-18T06:17:00;10.63;;;9.65;;
20298;SDS011;10308;42.688;23.256;2022-12-18T06:19:27;10.13;;;9.23;;
20298;SDS011;10308;42.688;23.256;2022-12-18T06:21:53;10.43;;;9.52;;
20298;SDS011;10308;42.688;23.256;2022-12-18T06:24:22;11.70;;;10.60;;
20298;SDS011;10308;42.688;23.256;2022-12-18T06:26:49;11.35;;;10.15;;
20298;SDS011;10308;42.688;23.256;2022-12-18T06:29:16;11.63;;;10.52;;
20298;SDS011;10308;42.688;23.256;2022-12-18T06:31:44;13.35;;;12.05;;
20298;SDS011;10308;42.688;23.256;2022-12-18T06:34:11;14.15;;;12.75;;
20298;SDS011;10308;42.688;23.256;2022-12-18T06:36:37;13.07;;;11.82;;
20298;SDS011;10308;42.688;23.256;2022-12-18T06:39:04;13.48;;;12.07;;
20298;SDS011;10308;42.688;23.256;2022-12-18T06:41:31;14.45;;;12.95;;
20298;SDS011;10308;42.688;23.256;2022-12-18T06:43:58;14.85;;;13.45;;
20298;SDS011;10308;42.688;23.256;2022-12-18T06:46:24;13.70;;;12.50;;
20298;SDS011;10308;42.688;23.256;2022-12-18T06:48:53;12.90;;;11.70;;
20298;SDS011;10308;42.688;23.256;2022-12-18T06:51:20;12.52;;;11.32;;
20298;SDS011;10308;42.688;23.256;2022-12-18T06:53:48;12.25;;;11.15;;
20298;SDS011;10308;42.688;23.256;2022-12-18T06:56:15;12.23;;;11.18;;
20298;SDS011;10308;42.688;23.256;2022-12-18T06:58:42;12.73;;;11.48;;
20298;SDS011;10308;42.688;23.256;2022-12-18T07:01:09;12.40;;;11.32;;
20298;SDS011;10308;42.688;23.256;2022-12-18T07:03:37;13.02;;;11.82;;
20298;SDS011;10308;42.688;23.256;2022-12-18T07:06:06;13.02;;;11.75;;
20298;SDS011;10308;42.688;23.256;2022-12-18T07:08:37;13.60;;;12.20;;
20298;SDS011;10308;42.688;23.256;2022-12-18T07:11:04;12.93;;;11.73;;
20298;SDS011;10308;42.688;23.256;2022-12-18T07:13:31;12.63;;;11.43;;
20298;SDS011;10308;42.688;23.256;2022-12-18T07:16:03;12.32;;;11.13;;
20298;SDS011;10308;42.688;23.256;2022-12-18T07:18:31;12.25;;;11.05;;
20298;SDS011;10308;42.688;23.256;2022-12-18T07:20:57;11.43;;;10.43;;
20298;SDS011;10308;42.688;23.256;2022-12-18T07:23:25;11.13;;;10.13;;
20298;SDS011;10308;42.688;23.256;2022-12-18T07:25:52;11.52;;;10.52;;
20298;SDS011;10308;42.688;23.256;2022-12-18T07:28:19;11.65;;;10.60;;
20298;SDS011;10308;42.688;23.256;2022-12-18T07:30:46;11.90;;;10.80;;
20298;SDS011;10308;42.688;23.256;2022-12-18T07:33:12;11.43;;;10.43;;
20298;SDS011;10308;42.688;23.256;2022-12-18T07:35:39;12.38;;;11.27;;
20298;SDS011;10308;42.688;23.256;2022-12-18T07:38:06;12.50;;;11.40;;
20298;SDS011;10308;42.688;23.256;2022-12-18T07:40:34;12.68;;;11.57;;
20298;SDS011;10308;42.688;23.256;2022-12-18T07:43:01;12.85;;;11.75;;
20298;SDS011;10308;42.688;23.256;2022-12-18T07:45:28;13.05;;;11.95;;
20298;SDS011;10308;42.688;23.256;2022-12-18T07:47:58;13.73;;;12.43;;
20298;SDS011;10308;42.688;23.256;2022-12-18T07:50:25;13.45;;;12.15;;
20298;SDS011;10308;42.688;23.256;2022-12-18T07:52:52;14.05;;;12.75;;
20298;SDS011;10308;42.688;23.256;2022-12-18T07:55:19;14.43;;;13.13;;
20298;SDS011;10308;42.688;23.256;2022-12-18T07:57:47;13.57;;;12.27;;
20298;SDS011;10308;42.688;23.256;2022-12-18T08:00:14;13.73;;;12.52;;
20298;SDS011;10308;42.688;23.256;2022-12-18T08:02:41;14.43;;;13.20;;
20298;SDS011;10308;42.688;23.256;2022-12-18T08:05:08;14.52;;;13.13;;
20298;SDS011;10308;42.688;23.256;2022-12-18T08:07:35;14.23;;;12.93;;
20298;SDS011;10308;42.688;23.256;2022-12-18T08:10:02;15.02;;;13.73;;
20298;SDS011;10308;42.688;23.256;2022-12-18T08:12:29;13.90;;;12.60;;
20298;SDS011;10308;42.688;23.256;2022-12-18T08:14:57;14.95;;;13.55;;
20298;SDS011;10308;42.688;23.256;2022-12-18T08:17:23;15.25;;;13.88;;
20298;SDS011;10308;42.688;23.256;2022-12-18T08:19:50;15.57;;;14.18;;
20298;SDS011;10308;42.688;23.256;2022-12-18T08:22:17;14.80;;;13.32;;
20298;SDS011;10308;42.688;23.256;2022-12-18T08:24:44;14.35;;;13.05;;
20298;SDS011;10308;42.688;23.256;2022-12-18T08:27:11;15.20;;;13.80;;
20298;SDS011;10308;42.688;23.256;2022-12-18T08:29:38;14.88;;;13.48;;
20298;SDS011;10308;42.688;23.256;2022-12-18T08:32:06;15.70;;;14.32;;
20298;SDS011;10308;42.688;23.256;2022-12-18T08:34:33;14.68;;;13.38;;
20298;SDS011;10308;42.688;23.256;2022-12-18T08:36:59;15.40;;;14.00;;
20298;SDS011;10308;42.688;23.256;2022-12-18T08:39:26;15.57;;;14.18;;
20298;SDS011;10308;42.688;23.256;2022-12-18T08:41:54;15.02;;;13.63;;
20298;SDS011;10308;42.688;23.256;2022-12-18T08:44:38;15.93;;;14.43;;
20298;SDS011;10308;42.688;23.256;2022-12-18T08:47:07;14.73;;;13.40;;
20298;SDS011;10308;42.688;23.256;2022-12-18T08:49:34;16.60;;;14.95;;
20298;SDS011;10308;42.688;23.256;2022-12-18T08:52:01;17.17;;;15.57;;
20298;SDS011;10308;42.688;23.256;2022-12-18T08:54:30;17.58;;;15.85;;
20298;SDS011;10308;42.688;23.256;2022-12-18T08:56:57;16.95;;;15.38;;
20298;SDS011;10308;42.688;23.256;2022-12-18T08:59:24;16.08;;;14.57;;
20298;SDS011;10308;42.688;23.256;2022-12-18T09:01:53;15.23;;;13.82;;
20298;SDS011;10308;42.688;23.256;2022-12-18T09:04:22;14.35;;;13.05;;
20298;SDS011;10308;42.688;23.256;2022-12-18T09:06:49;14.85;;;13.65;;
20298;SDS011;10308;42.688;23.256;2022-12-18T09:09:15;14.43;;;13.13;;
20298;SDS011;10308;42.688;23.256;2022-12-18T09:11:42;14.30;;;13.00;;
20298;SDS011;10308;42.688;23.256;2022-12-18T09:14:09;14.25;;;13.00;;
20298;SDS011;10308;42.688;23.256;2022-12-18T09:16:36;14.75;;;13.35;;
20298;SDS011;10308;42.688;23.256;2022-12-18T09:19:03;14.38;;;12.98;;
20298;SDS011;10308;42.688;23.256;2022-12-18T09:21:33;14.43;;;13.13;;
20298;SDS011;10308;42.688;23.256;2022-12-18T09:24:04;14.25;;;12.85;;
20298;SDS011;10308;42.688;23.256;2022-12-18T09:26:31;13.93;;;12.70;;
20298;SDS011;10308;42.688;23.256;2022-12-18T09:29:00;14.95;;;13.45;;
20298;SDS011;10308;42.688;23.256;2022-12-18T09:31:26;14.85;;;13.45;;
20298;SDS011;10308;42.688;23.256;2022-12-18T09:33:54;13.80;;;12.50;;
20298;SDS011;10308;42.688;23.256;2022-12-18T09:36:21;13.32;;;12.18;;
20298;SDS011;10308;42.688;23.256;2022-12-18T09:38:50;13.57;;;12.38;;
20298;SDS011;10308;42.688;23.256;2022-12-18T09:41:23;13.50;;;12.30;;
20298;SDS011;10308;42.688;23.256;2022-12-18T09:44:00;14.10;;;12.82;;
20298;SDS011;10308;42.688;23.256;2022-12-18T09:46:28;13.15;;;11.93;;
20298;SDS011;10308;42.688;23.256;2022-12-18T09:48:58;13.98;;;12.57;;
20298;SDS011;10308;42.688;23.256;2022-12-18T09:51:28;13.85;;;12.45;;
20298;SDS011;10308;42.688;23.256;2022-12-18T09:53:58;13.65;;;12.35;;
20298;SDS011;10308;42.688;23.256;2022-12-18T09:56:28;14.20;;;12.90;;
20298;SDS011;10308;42.688;23.256;2022-12-18T09:58:57;13.55;;;12.25;;
20298;SDS011;10308;42.688;23.256;2022-12-18T10:01:25;12.65;;;11.45;;
20298;SDS011;10308;42.688;23.256;2022-12-18T10:03:53;14.00;;;12.60;;
20298;SDS011;10308;42.688;23.256;2022-12-18T10:06:21;14.18;;;12.88;;
20298;SDS011;10308;42.688;23.256;2022-12-18T10:08:51;14.68;;;13.38;;
20298;SDS011;10308;42.688;23.256;2022-12-18T10:11:37;13.70;;;12.40;;
20298;SDS011;10308;42.688;23.256;2022-12-18T10:14:09;13.15;;;11.85;;
20298;SDS011;10308;42.688;23.256;2022-12-18T10:16:42;13.13;;;11.85;;
20298;SDS011;10308;42.688;23.256;2022-12-18T10:19:21;12.63;;;11.52;;
20298;SDS011;10308;42.688;23.256;2022-12-18T10:21:55;12.27;;;11.27;;
20298;SDS011;10308;42.688;23.256;2022-12-18T10:24:26;13.20;;;12.00;;
20298;SDS011;10308;42.688;23.256;2022-12-18T10:27:04;13.55;;;12.35;;
20298;SDS011;10308;42.688;23.256;2022-12-18T10:29:38;13.43;;;12.23;;
20298;SDS011;10308;42.688;23.256;2022-12-18T10:32:06;12.88;;;11.68;;
20298;SDS011;10308;42.688;23.256;2022-12-18T10:34:33;13.40;;;12.20;;
20298;SDS011;10308;42.688;23.256;2022-12-18T10:37:00;13.88;;;12.50;;
20298;SDS011;10308;42.688;23.256;2022-12-18T10:39:30;13.32;;;12.13;;
20298;SDS011;10308;42.688;23.256;2022-12-18T10:42:08;14.65;;;13.35;;
20298;SDS011;10308;42.688;23.256;2022-12-18T10:44:37;14.60;;;13.30;;
20298;SDS011;10308;42.688;23.256;2022-12-18T10:47:04;14.13;;;12.73;;
20298;SDS011;10308;42.688;23.256;2022-12-18T10:49:33;14.52;;;13.15;;
20298;SDS011;10308;42.688;23.256;2022-12-18T10:52:05;14.43;;;13.02;;
20298;SDS011;10308;42.688;23.256;2022-12-18T10:54:34;13.90;;;12.60;;
20298;SDS011;10308;42.688;23.256;2022-12-18T10:57:15;12.88;;;11.70;;
20298;SDS011;10308;42.688;23.256;2022-12-18T10:59:49;12.82;;;11.65;;
20298;SDS011;10308;42.688;23.256;2022-12-18T11:02:24;12.35;;;11.15;;
20298;SDS011;10308;42.688;23.256;2022-12-18T11:04:52;13.65;;;12.35;;
20298;SDS011;10308;42.688;23.256;2022-12-18T11:07:19;12.07;;;10.98;;
20298;SDS011;10308;42.688;23.256;2022-12-18T11:09:46;13.52;;;12.32;;
20298;SDS011;10308;42.688;23.256;2022-12-18T11:12:30;12.68;;;11.48;;
20298;SDS011;10308;42.688;23.256;2022-12-18T11:14:57;12.75;;;11.55;;
20298;SDS011;10308;42.688;23.256;2022-12-18T11:17:27;13.30;;;12.10;;
20298;SDS011;10308;42.688;23.256;2022-12-18T11:19:55;13.65;;;12.43;;
20298;SDS011;10308;42.688;23.256;2022-12-18T11:22:24;13.57;;;12.27;;
20298;SDS011;10308;42.688;23.256;2022-12-18T11:24:53;13.60;;;12.30;;
20298;SDS011;10308;42.688;23.256;2022-12-18T11:27:21;13.73;;;12.43;;
20298;SDS011;10308;42.688;23.256;2022-12-18T11:29:50;12.68;;;11.48;;
20298;SDS011;10308;42.688;23.256;2022-12-18T11:32:24;13.20;;;11.85;;
20298;SDS011;10308;42.688;23.256;2022-12-18T11:34:58;12.23;;;11.13;;
20298;SDS011;10308;42.688;23.256;2022-12-18T11:37:28;10.45;;;9.48;;
20298;SDS011;10308;42.688;23.256;2022-12-18T11:39:56;11.52;;;10.40;;
20298;SDS011;10308;42.688;23.256;2022-12-18T11:42:27;10.90;;;9.90;;
20298;SDS011;10308;42.688;23.256;2022-12-18T11:45:00;10.90;;;9.90;;
20298;SDS011;10308;42.688;23.256;2022-12-18T11:47:49;12.75;;;11.55;;
20298;SDS011;10308;42.688;23.256;2022-12-18T11:50:19;12.70;;;11.50;;
20298;SDS011;10308;42.688;23.256;2022-12-18T11:52:52;13.38;;;12.10;;
20298;SDS011;10308;42.688;23.256;2022-12-18T11:55:22;13.63;;;12.32;;
20298;SDS011;10308;42.688;23.256;2022-12-18T11:57:56;14.82;;;13.32;;
20298;SDS011;10308;42.688;23.256;2022-12-18T12:00:28;13.32;;;12.10;;
20298;SDS011;10308;42.688;23.256;2022-12-18T12:03:01;14.13;;;12.77;;
20298;SDS011;10308;42.688;23.256;2022-12-18T12:05:42;14.55;;;13.15;;
20298;SDS011;10308;42.688;23.256;2022-12-18T12:08:15;14.75;;;13.32;;
20298;SDS011;10308;42.688;23.256;2022-12-18T12:10:49;14.27;;;12.95;;
20298;SDS011;10308;42.688;23.256;2022-12-18T12:13:23;13.60;;;12.30;;
20298;SDS011;10308;42.688;23.256;2022-12-18T12:16:01;13.60;;;12.30;;
20298;SDS011;10308;42.688;23.256;2022-12-18T12:18:35;13.77;;;12.48;;
20298;SDS011;10308;42.688;23.256;2022-12-18T12:21:08;15.13;;;13.63;;
20298;SDS011;10308;42.688;23.256;2022-12-18T12:23:40;13.55;;;12.27;;
20298;SDS011;10308;42.688;23.256;2022-12-18T12:26:12;13.80;;;12.55;;
20298;SDS011;10308;42.688;23.256;2022-12-18T12:28:57;14.45;;;13.15;;
20298;SDS011;10308;42.688;23.256;2022-12-18T12:31:33;14.48;;;13.07;;
20298;SDS011;10308;42.688;23.256;2022-12-18T12:34:10;15.25;;;13.85;;
20298;SDS011;10308;42.688;23.256;2022-12-18T12:36:45;15.40;;;14.00;;
20298;SDS011;10308;42.688;23.256;2022-12-18T12:39:26;14.00;;;12.70;;
20298;SDS011;10308;42.688;23.256;2022-12-18T12:41:56;14.65;;;13.25;;
20298;SDS011;10308;42.688;23.256;2022-12-18T12:44:42;13.18;;;11.88;;
20298;SDS011;10308;42.688;23.256;2022-12-18T12:47:13;13.65;;;12.32;;
20298;SDS011;10308;42.688;23.256;2022-12-18T12:49:41;14.50;;;13.00;;
20298;SDS011;10308;42.688;23.256;2022-12-18T12:52:13;14.15;;;12.85;;
20298;SDS011;10308;42.688;23.256;2022-12-18T12:54:42;13.65;;;12.45;;
20298;SDS011;10308;42.688;23.256;2022-12-18T12:57:11;14.55;;;13.15;;
20298;SDS011;10308;42.688;23.256;2022-12-18T12:59:44;12.77;;;11.57;;
20298;SDS011;10308;42.688;23.256;2022-12-18T13:02:17;13.68;;;12.48;;
20298;SDS011;10308;42.688;23.256;2022-12-18T13:04:49;13.32;;;12.10;;
20298;SDS011;10308;42.688;23.256;2022-12-18T13:07:20;13.13;;;11.82;;
20298;SDS011;10308;42.688;23.256;2022-12-18T13:12:48;13.25;;;11.95;;
20298;SDS011;10308;42.688;23.256;2022-12-18T13:15:23;13.18;;;11.90;;
20298;SDS011;10308;42.688;23.256;2022-12-18T13:18:09;13.27;;;12.07;;
20298;SDS011;10308;42.688;23.256;2022-12-18T13:20:42;13.18;;;11.98;;
20298;SDS011;10308;42.688;23.256;2022-12-18T13:23:23;15.35;;;13.85;;
20298;SDS011;10308;42.688;23.256;2022-12-18T13:25:53;14.70;;;13.40;;
20298;SDS011;10308;42.688;23.256;2022-12-18T13:28:21;14.45;;;13.05;;
20298;SDS011;10308;42.688;23.256;2022-12-18T13:30:50;14.25;;;12.85;;
20298;SDS011;10308;42.688;23.256;2022-12-18T13:36:26;13.98;;;12.52;;
20298;SDS011;10308;42.688;23.256;2022-12-18T13:41:54;13.70;;;12.40;;
20298;SDS011;10308;42.688;23.256;2022-12-18T13:45:37;14.95;;;13.50;;
20298;SDS011;10308;42.688;23.256;2022-12-18T13:48:14;13.50;;;12.20;;
20298;SDS011;10308;42.688;23.256;2022-12-18T13:50:43;14.20;;;12.90;;
20298;SDS011;10308;42.688;23.256;2022-12-18T13:53:16;14.05;;;12.57;;
20298;SDS011;10308;42.688;23.256;2022-12-18T13:55:46;13.00;;;11.77;;
20298;SDS011;10308;42.688;23.256;2022-12-18T13:58:13;13.35;;;12.05;;
20298;SDS011;10308;42.688;23.256;2022-12-18T14:00:40;13.68;;;12.48;;
20298;SDS011;10308;42.688;23.256;2022-12-18T14:03:15;13.48;;;12.27;;
20298;SDS011;10308;42.688;23.256;2022-12-18T14:05:46;12.55;;;11.35;;
20298;SDS011;10308;42.688;23.256;2022-12-18T14:08:19;12.02;;;10.82;;
20298;SDS011;10308;42.688;23.256;2022-12-18T14:10:47;11.43;;;10.32;;
20298;SDS011;10308;42.688;23.256;2022-12-18T14:13:17;11.73;;;10.63;;
20298;SDS011;10308;42.688;23.256;2022-12-18T14:15:47;12.35;;;11.15;;
20298;SDS011;10308;42.688;23.256;2022-12-18T14:18:18;11.55;;;10.55;;
20298;SDS011;10308;42.688;23.256;2022-12-18T14:20:49;11.18;;;10.07;;
20298;SDS011;10308;42.688;23.256;2022-12-18T14:23:30;11.10;;;10.10;;
20298;SDS011;10308;42.688;23.256;2022-12-18T14:25:59;11.25;;;10.15;;
20298;SDS011;10308;42.688;23.256;2022-12-18T14:28:26;11.15;;;10.15;;
20298;SDS011;10308;42.688;23.256;2022-12-18T14:30:53;11.32;;;10.32;;
20298;SDS011;10308;42.688;23.256;2022-12-18T14:33:20;11.20;;;10.18;;
20298;SDS011;10308;42.688;23.256;2022-12-18T14:35:54;11.18;;;9.98;;
20298;SDS011;10308;42.688;23.256;2022-12-18T14:38:24;11.35;;;10.30;;
20298;SDS011;10308;42.688;23.256;2022-12-18T14:40:53;11.30;;;10.20;;
20298;SDS011;10308;42.688;23.256;2022-12-18T14:43:27;10.95;;;9.95;;